sensor_id;sensor_type;location;lat;lon;timestamp;P1;durP1;ratioP1;P2;durP2;ratioP2
68074;SDS011;54864;52.002;5.468;2023-06-10T00:00:55;12.55;;;9.13;;
68074;SDS011;54864;52.002;5.468;2023-06-10T00:01:57;10.32;;;8.35;;
68074;SDS011;54864;52.002;5.468;2023-06-10T00:02:59;11.48;;;8.70;;
68074;SDS011;54864;52.002;5.468;2023-06-10T00:04:01;12.20;;;8.40;;
68074;SDS011;54864;52.002;5.468;2023-06-10T00:05:03;11.75;;;9.00;;
68074;SDS011;54864;52.002;5.468;2023-06-10T00:06:05;13.23;;;8.90;;
68074;SDS011;54864;52.002;5.468;2023-06-10T00:07:06;10.30;;;8.80;;
68074;SDS011;54864;52.002;5.468;2023-06-10T00:08:10;11.68;;;9.00;;
68074;SDS011;54864;52.002;5.468;2023-06-10T00:09:11;9.80;;;8.77;;
68074;SDS011;54864;52.002;5.468;2023-06-10T00:10:14;12.95;;;9.00;;
68074;SDS011;54864;52.002;5.468;2023-06-10T00:11:16;11.60;;;9.13;;
68074;SDS011;54864;52.002;5.468;2023-06-10T00:12:17;10.55;;;8.50;;
68074;SDS011;54864;52.002;5.468;2023-06-10T00:13:20;10.63;;;9.02;;
68074;SDS011;54864;52.002;5.468;2023-06-10T00:14:22;13.07;;;9.20;;
68074;SDS011;54864;52.002;5.468;2023-06-10T00:15:22;11.95;;;8.95;;
68074;SDS011;54864;52.002;5.468;2023-06-10T00:16:24;13.07;;;9.00;;
68074;SDS011;54864;52.002;5.468;2023-06-10T00:17:25;13.65;;;9.00;;
68074;SDS011;54864;52.002;5.468;2023-06-10T00:18:29;15.40;;;8.82;;
68074;SDS011;54864;52.002;5.468;2023-06-10T00:19:31;14.35;;;8.90;;
68074;SDS011;54864;52.002;5.468;2023-06-10T00:20:32;12.57;;;9.23;;
68074;SDS011;54864;52.002;5.468;2023-06-10T00:21:39;11.48;;;8.13;;
68074;SDS011;54864;52.002;5.468;2023-06-10T00:22:40;14.52;;;8.82;;
68074;SDS011;54864;52.002;5.468;2023-06-10T00:23:47;12.57;;;8.43;;
68074;SDS011;54864;52.002;5.468;2023-06-10T00:24:47;10.30;;;8.35;;
68074;SDS011;54864;52.002;5.468;2023-06-10T00:25:49;9.73;;;8.43;;
68074;SDS011;54864;52.002;5.468;2023-06-10T00:26:50;12.43;;;9.02;;
68074;SDS011;54864;52.002;5.468;2023-06-10T00:27:51;11.65;;;8.48;;
68074;SDS011;54864;52.002;5.468;2023-06-10T00:28:52;11.57;;;8.90;;
68074;SDS011;54864;52.002;5.468;2023-06-10T00:29:54;16.05;;;8.70;;
68074;SDS011;54864;52.002;5.468;2023-06-10T00:30:54;13.77;;;9.70;;
68074;SDS011;54864;52.002;5.468;2023-06-10T00:31:57;12.82;;;8.23;;
68074;SDS011;54864;52.002;5.468;2023-06-10T00:32:58;11.85;;;8.52;;
68074;SDS011;54864;52.002;5.468;2023-06-10T00:34:00;11.53;;;9.07;;
68074;SDS011;54864;52.002;5.468;2023-06-10T00:35:00;15.70;;;8.60;;
68074;SDS011;54864;52.002;5.468;2023-06-10T00:36:03;12.20;;;8.60;;
68074;SDS011;54864;52.002;5.468;2023-06-10T00:37:03;14.02;;;8.25;;
68074;SDS011;54864;52.002;5.468;2023-06-10T00:38:06;11.77;;;8.80;;
68074;SDS011;54864;52.002;5.468;2023-06-10T00:39:08;11.77;;;8.40;;
68074;SDS011;54864;52.002;5.468;2023-06-10T00:40:10;13.03;;;8.70;;
68074;SDS011;54864;52.002;5.468;2023-06-10T00:41:11;12.15;;;7.85;;
68074;SDS011;54864;52.002;5.468;2023-06-10T00:42:13;11.95;;;8.77;;
68074;SDS011;54864;52.002;5.468;2023-06-10T00:43:13;12.57;;;8.20;;
68074;SDS011;54864;52.002;5.468;2023-06-10T00:44:15;14.40;;;8.40;;
68074;SDS011;54864;52.002;5.468;2023-06-10T00:45:16;11.37;;;8.03;;
68074;SDS011;54864;52.002;5.468;2023-06-10T00:46:17;13.68;;;8.00;;
68074;SDS011;54864;52.002;5.468;2023-06-10T00:47:18;13.35;;;8.13;;
68074;SDS011;54864;52.002;5.468;2023-06-10T00:48:20;10.80;;;7.70;;
68074;SDS011;54864;52.002;5.468;2023-06-10T00:49:21;10.27;;;8.03;;
68074;SDS011;54864;52.002;5.468;2023-06-10T00:50:23;12.10;;;8.52;;
68074;SDS011;54864;52.002;5.468;2023-06-10T00:51:23;11.27;;;8.37;;
68074;SDS011;54864;52.002;5.468;2023-06-10T00:52:27;12.07;;;8.00;;
68074;SDS011;54864;52.002;5.468;2023-06-10T00:53:29;10.57;;;7.90;;
68074;SDS011;54864;52.002;5.468;2023-06-10T00:54:32;11.35;;;8.10;;
68074;SDS011;54864;52.002;5.468;2023-06-10T00:55:33;11.68;;;7.78;;
68074;SDS011;54864;52.002;5.468;2023-06-10T00:56:35;13.02;;;8.18;;
68074;SDS011;54864;52.002;5.468;2023-06-10T00:57:37;9.93;;;7.88;;
68074;SDS011;54864;52.002;5.468;2023-06-10T00:58:39;11.80;;;7.78;;
68074;SDS011;54864;52.002;5.468;2023-06-10T00:59:40;13.57;;;8.60;;
68074;SDS011;54864;52.002;5.468;2023-06-10T01:00:42;12.10;;;8.17;;
68074;SDS011;54864;52.002;5.468;2023-06-10T01:01:45;12.60;;;8.05;;
68074;SDS011;54864;52.002;5.468;2023-06-10T01:02:48;14.82;;;8.18;;
68074;SDS011;54864;52.002;5.468;2023-06-10T01:03:49;11.00;;;7.75;;
68074;SDS011;54864;52.002;5.468;2023-06-10T01:04:51;11.60;;;7.88;;
68074;SDS011;54864;52.002;5.468;2023-06-10T01:05:53;10.23;;;7.35;;
68074;SDS011;54864;52.002;5.468;2023-06-10T01:07:05;10.40;;;8.00;;
68074;SDS011;54864;52.002;5.468;2023-06-10T01:08:16;13.38;;;8.30;;
68074;SDS011;54864;52.002;5.468;2023-06-10T01:09:30;11.20;;;8.38;;
68074;SDS011;54864;52.002;5.468;2023-06-10T01:10:41;9.85;;;7.70;;
68074;SDS011;54864;52.002;5.468;2023-06-10T01:11:46;13.23;;;7.40;;
68074;SDS011;54864;52.002;5.468;2023-06-10T01:12:52;12.90;;;8.00;;
68074;SDS011;54864;52.002;5.468;2023-06-10T01:14:02;9.27;;;7.88;;
68074;SDS011;54864;52.002;5.468;2023-06-10T01:15:05;10.93;;;8.07;;
68074;SDS011;54864;52.002;5.468;2023-06-10T01:16:08;10.35;;;7.75;;
68074;SDS011;54864;52.002;5.468;2023-06-10T01:17:10;11.63;;;7.40;;
68074;SDS011;54864;52.002;5.468;2023-06-10T01:18:12;10.38;;;7.45;;
68074;SDS011;54864;52.002;5.468;2023-06-10T01:19:15;8.48;;;7.15;;
68074;SDS011;54864;52.002;5.468;2023-06-10T01:20:17;12.50;;;7.40;;
68074;SDS011;54864;52.002;5.468;2023-06-10T01:21:21;11.53;;;7.40;;
68074;SDS011;54864;52.002;5.468;2023-06-10T01:22:24;9.60;;;7.13;;
68074;SDS011;54864;52.002;5.468;2023-06-10T01:23:28;10.98;;;7.30;;
68074;SDS011;54864;52.002;5.468;2023-06-10T01:24:30;10.32;;;7.30;;
68074;SDS011;54864;52.002;5.468;2023-06-10T01:25:35;16.02;;;7.55;;
68074;SDS011;54864;52.002;5.468;2023-06-10T01:26:40;9.23;;;7.43;;
68074;SDS011;54864;52.002;5.468;2023-06-10T01:27:43;13.82;;;7.80;;
68074;SDS011;54864;52.002;5.468;2023-06-10T01:28:49;8.60;;;7.32;;
68074;SDS011;54864;52.002;5.468;2023-06-10T01:29:57;13.15;;;7.85;;
68074;SDS011;54864;52.002;5.468;2023-06-10T01:31:06;13.55;;;7.80;;
68074;SDS011;54864;52.002;5.468;2023-06-10T01:32:15;8.23;;;6.82;;
68074;SDS011;54864;52.002;5.468;2023-06-10T01:33:21;8.85;;;7.47;;
68074;SDS011;54864;52.002;5.468;2023-06-10T01:34:26;11.27;;;7.10;;
68074;SDS011;54864;52.002;5.468;2023-06-10T01:35:29;8.57;;;7.20;;
68074;SDS011;54864;52.002;5.468;2023-06-10T01:36:32;12.15;;;7.63;;
68074;SDS011;54864;52.002;5.468;2023-06-10T01:37:36;9.88;;;7.00;;
68074;SDS011;54864;52.002;5.468;2023-06-10T01:38:40;11.40;;;7.38;;
68074;SDS011;54864;52.002;5.468;2023-06-10T01:39:44;10.13;;;7.88;;
68074;SDS011;54864;52.002;5.468;2023-06-10T01:40:46;10.23;;;7.00;;
68074;SDS011;54864;52.002;5.468;2023-06-10T01:41:51;11.95;;;7.22;;
68074;SDS011;54864;52.002;5.468;2023-06-10T01:42:52;11.43;;;6.72;;
68074;SDS011;54864;52.002;5.468;2023-06-10T01:43:54;10.80;;;7.38;;
68074;SDS011;54864;52.002;5.468;2023-06-10T01:44:55;10.73;;;7.28;;
68074;SDS011;54864;52.002;5.468;2023-06-10T01:45:57;9.10;;;7.18;;
68074;SDS011;54864;52.002;5.468;2023-06-10T01:46:58;11.05;;;7.82;;
68074;SDS011;54864;52.002;5.468;2023-06-10T01:47:59;11.80;;;7.68;;
68074;SDS011;54864;52.002;5.468;2023-06-10T01:49:00;12.15;;;7.88;;
68074;SDS011;54864;52.002;5.468;2023-06-10T01:50:02;10.50;;;7.53;;
68074;SDS011;54864;52.002;5.468;2023-06-10T01:51:03;9.45;;;7.47;;
68074;SDS011;54864;52.002;5.468;2023-06-10T01:52:06;9.55;;;7.57;;
68074;SDS011;54864;52.002;5.468;2023-06-10T01:53:07;9.40;;;7.38;;
68074;SDS011;54864;52.002;5.468;2023-06-10T01:54:09;10.68;;;7.60;;
68074;SDS011;54864;52.002;5.468;2023-06-10T01:55:10;11.25;;;7.68;;
68074;SDS011;54864;52.002;5.468;2023-06-10T01:56:11;12.48;;;7.43;;
68074;SDS011;54864;52.002;5.468;2023-06-10T01:57:16;12.80;;;7.25;;
68074;SDS011;54864;52.002;5.468;2023-06-10T01:58:19;11.43;;;7.47;;
68074;SDS011;54864;52.002;5.468;2023-06-10T01:59:20;13.52;;;7.63;;
68074;SDS011;54864;52.002;5.468;2023-06-10T02:00:22;11.65;;;7.57;;
68074;SDS011;54864;52.002;5.468;2023-06-10T02:01:22;10.43;;;7.25;;
68074;SDS011;54864;52.002;5.468;2023-06-10T02:02:24;10.43;;;7.25;;
68074;SDS011;54864;52.002;5.468;2023-06-10T02:03:25;9.85;;;6.72;;
68074;SDS011;54864;52.002;5.468;2023-06-10T02:04:26;10.63;;;7.22;;
68074;SDS011;54864;52.002;5.468;2023-06-10T02:05:27;14.87;;;7.67;;
68074;SDS011;54864;52.002;5.468;2023-06-10T02:06:29;11.00;;;7.20;;
68074;SDS011;54864;52.002;5.468;2023-06-10T02:07:31;12.45;;;7.28;;
68074;SDS011;54864;52.002;5.468;2023-06-10T02:08:33;12.38;;;7.47;;
68074;SDS011;54864;52.002;5.468;2023-06-10T02:09:33;10.95;;;7.32;;
68074;SDS011;54864;52.002;5.468;2023-06-10T02:10:36;12.90;;;7.90;;
68074;SDS011;54864;52.002;5.468;2023-06-10T02:11:37;11.80;;;7.30;;
68074;SDS011;54864;52.002;5.468;2023-06-10T02:12:38;10.32;;;7.20;;
68074;SDS011;54864;52.002;5.468;2023-06-10T02:13:39;12.23;;;7.05;;
68074;SDS011;54864;52.002;5.468;2023-06-10T02:14:41;8.65;;;7.20;;
68074;SDS011;54864;52.002;5.468;2023-06-10T02:15:41;10.60;;;6.75;;
68074;SDS011;54864;52.002;5.468;2023-06-10T02:16:43;9.57;;;6.80;;
68074;SDS011;54864;52.002;5.468;2023-06-10T02:17:46;9.35;;;7.13;;
68074;SDS011;54864;52.002;5.468;2023-06-10T02:18:49;12.25;;;7.22;;
68074;SDS011;54864;52.002;5.468;2023-06-10T02:19:50;9.10;;;7.25;;
68074;SDS011;54864;52.002;5.468;2023-06-10T02:20:53;12.38;;;7.30;;
68074;SDS011;54864;52.002;5.468;2023-06-10T02:21:54;9.13;;;6.68;;
68074;SDS011;54864;52.002;5.468;2023-06-10T02:22:57;12.73;;;7.35;;
68074;SDS011;54864;52.002;5.468;2023-06-10T02:23:59;10.15;;;6.60;;
68074;SDS011;54864;52.002;5.468;2023-06-10T02:25:00;9.68;;;7.45;;
68074;SDS011;54864;52.002;5.468;2023-06-10T02:26:01;8.43;;;7.33;;
68074;SDS011;54864;52.002;5.468;2023-06-10T02:27:03;11.70;;;7.53;;
68074;SDS011;54864;52.002;5.468;2023-06-10T02:28:06;12.65;;;7.93;;
68074;SDS011;54864;52.002;5.468;2023-06-10T02:29:08;9.45;;;6.90;;
68074;SDS011;54864;52.002;5.468;2023-06-10T02:30:09;10.30;;;7.07;;
68074;SDS011;54864;52.002;5.468;2023-06-10T02:31:11;12.70;;;6.97;;
68074;SDS011;54864;52.002;5.468;2023-06-10T02:32:13;11.88;;;7.35;;
68074;SDS011;54864;52.002;5.468;2023-06-10T02:33:14;14.63;;;6.80;;
68074;SDS011;54864;52.002;5.468;2023-06-10T02:34:15;10.23;;;6.97;;
68074;SDS011;54864;52.002;5.468;2023-06-10T02:35:17;10.32;;;6.82;;
68074;SDS011;54864;52.002;5.468;2023-06-10T02:36:17;10.27;;;7.03;;
68074;SDS011;54864;52.002;5.468;2023-06-10T02:37:21;10.95;;;7.03;;
68074;SDS011;54864;52.002;5.468;2023-06-10T02:38:23;12.13;;;7.10;;
68074;SDS011;54864;52.002;5.468;2023-06-10T02:39:25;9.57;;;6.70;;
68074;SDS011;54864;52.002;5.468;2023-06-10T02:40:25;9.00;;;7.38;;
68074;SDS011;54864;52.002;5.468;2023-06-10T02:41:27;13.95;;;7.20;;
68074;SDS011;54864;52.002;5.468;2023-06-10T02:42:28;13.45;;;7.20;;
68074;SDS011;54864;52.002;5.468;2023-06-10T02:43:30;11.25;;;7.13;;
68074;SDS011;54864;52.002;5.468;2023-06-10T02:44:31;13.05;;;7.10;;
68074;SDS011;54864;52.002;5.468;2023-06-10T02:45:32;10.48;;;6.28;;
68074;SDS011;54864;52.002;5.468;2023-06-10T02:46:33;12.38;;;7.15;;
68074;SDS011;54864;52.002;5.468;2023-06-10T02:47:37;11.02;;;7.35;;
68074;SDS011;54864;52.002;5.468;2023-06-10T02:48:41;12.57;;;7.65;;
68074;SDS011;54864;52.002;5.468;2023-06-10T02:49:44;14.70;;;7.57;;
68074;SDS011;54864;52.002;5.468;2023-06-10T02:50:44;9.80;;;6.90;;
68074;SDS011;54864;52.002;5.468;2023-06-10T02:51:46;13.27;;;7.60;;
68074;SDS011;54864;52.002;5.468;2023-06-10T02:52:47;10.40;;;6.93;;
68074;SDS011;54864;52.002;5.468;2023-06-10T02:53:51;12.07;;;7.35;;
68074;SDS011;54864;52.002;5.468;2023-06-10T02:54:51;12.32;;;7.40;;
68074;SDS011;54864;52.002;5.468;2023-06-10T02:55:53;15.93;;;7.38;;
68074;SDS011;54864;52.002;5.468;2023-06-10T02:56:54;11.03;;;7.07;;
68074;SDS011;54864;52.002;5.468;2023-06-10T02:57:56;9.75;;;6.65;;
68074;SDS011;54864;52.002;5.468;2023-06-10T02:58:56;9.18;;;7.07;;
68074;SDS011;54864;52.002;5.468;2023-06-10T02:59:58;11.20;;;7.25;;
68074;SDS011;54864;52.002;5.468;2023-06-10T03:00:59;11.48;;;6.88;;
68074;SDS011;54864;52.002;5.468;2023-06-10T03:02:01;10.82;;;7.10;;
68074;SDS011;54864;52.002;5.468;2023-06-10T03:03:02;10.90;;;7.80;;
68074;SDS011;54864;52.002;5.468;2023-06-10T03:04:05;11.63;;;7.30;;
68074;SDS011;54864;52.002;5.468;2023-06-10T03:05:06;11.40;;;7.70;;
68074;SDS011;54864;52.002;5.468;2023-06-10T03:06:10;11.57;;;7.15;;
68074;SDS011;54864;52.002;5.468;2023-06-10T03:07:11;10.35;;;6.55;;
68074;SDS011;54864;52.002;5.468;2023-06-10T03:08:12;10.45;;;7.30;;
68074;SDS011;54864;52.002;5.468;2023-06-10T03:09:14;12.87;;;6.90;;
68074;SDS011;54864;52.002;5.468;2023-06-10T03:10:16;12.25;;;7.20;;
68074;SDS011;54864;52.002;5.468;2023-06-10T03:11:16;11.82;;;7.15;;
68074;SDS011;54864;52.002;5.468;2023-06-10T03:12:19;13.40;;;6.87;;
68074;SDS011;54864;52.002;5.468;2023-06-10T03:13:20;13.73;;;7.50;;
68074;SDS011;54864;52.002;5.468;2023-06-10T03:14:21;15.23;;;7.82;;
68074;SDS011;54864;52.002;5.468;2023-06-10T03:15:22;11.27;;;7.20;;
68074;SDS011;54864;52.002;5.468;2023-06-10T03:16:24;12.27;;;7.30;;
68074;SDS011;54864;52.002;5.468;2023-06-10T03:17:25;10.15;;;7.25;;
68074;SDS011;54864;52.002;5.468;2023-06-10T03:18:27;13.95;;;7.28;;
68074;SDS011;54864;52.002;5.468;2023-06-10T03:19:28;12.88;;;7.82;;
68074;SDS011;54864;52.002;5.468;2023-06-10T03:20:30;11.82;;;7.40;;
68074;SDS011;54864;52.002;5.468;2023-06-10T03:21:31;10.50;;;7.05;;
68074;SDS011;54864;52.002;5.468;2023-06-10T03:22:33;12.88;;;7.30;;
68074;SDS011;54864;52.002;5.468;2023-06-10T03:23:33;13.70;;;7.35;;
68074;SDS011;54864;52.002;5.468;2023-06-10T03:24:36;12.27;;;7.13;;
68074;SDS011;54864;52.002;5.468;2023-06-10T03:25:40;11.68;;;7.30;;
68074;SDS011;54864;52.002;5.468;2023-06-10T03:26:41;13.80;;;7.07;;
68074;SDS011;54864;52.002;5.468;2023-06-10T03:27:42;10.45;;;6.60;;
68074;SDS011;54864;52.002;5.468;2023-06-10T03:28:44;11.73;;;7.25;;
68074;SDS011;54864;52.002;5.468;2023-06-10T03:29:45;11.50;;;7.30;;
68074;SDS011;54864;52.002;5.468;2023-06-10T03:30:46;10.70;;;6.63;;
68074;SDS011;54864;52.002;5.468;2023-06-10T03:31:47;11.82;;;7.25;;
68074;SDS011;54864;52.002;5.468;2023-06-10T03:32:49;8.95;;;6.65;;
68074;SDS011;54864;52.002;5.468;2023-06-10T03:33:49;11.10;;;7.00;;
68074;SDS011;54864;52.002;5.468;2023-06-10T03:34:51;15.60;;;7.18;;
68074;SDS011;54864;52.002;5.468;2023-06-10T03:35:58;11.75;;;7.65;;
68074;SDS011;54864;52.002;5.468;2023-06-10T03:36:59;10.27;;;6.70;;
68074;SDS011;54864;52.002;5.468;2023-06-10T03:38:01;10.38;;;6.70;;
68074;SDS011;54864;52.002;5.468;2023-06-10T03:39:01;11.32;;;7.38;;
68074;SDS011;54864;52.002;5.468;2023-06-10T03:40:05;10.95;;;6.80;;
68074;SDS011;54864;52.002;5.468;2023-06-10T03:41:08;10.60;;;6.65;;
68074;SDS011;54864;52.002;5.468;2023-06-10T03:42:10;9.55;;;6.88;;
68074;SDS011;54864;52.002;5.468;2023-06-10T03:43:10;14.03;;;7.23;;
68074;SDS011;54864;52.002;5.468;2023-06-10T03:44:12;9.50;;;6.82;;
68074;SDS011;54864;52.002;5.468;2023-06-10T03:45:13;9.43;;;7.50;;
68074;SDS011;54864;52.002;5.468;2023-06-10T03:46:15;14.25;;;7.50;;
68074;SDS011;54864;52.002;5.468;2023-06-10T03:47:17;12.68;;;7.65;;
68074;SDS011;54864;52.002;5.468;2023-06-10T03:48:19;12.40;;;7.32;;
68074;SDS011;54864;52.002;5.468;2023-06-10T03:49:20;14.23;;;7.68;;
68074;SDS011;54864;52.002;5.468;2023-06-10T03:50:25;12.48;;;7.53;;
68074;SDS011;54864;52.002;5.468;2023-06-10T03:51:26;14.13;;;7.60;;
68074;SDS011;54864;52.002;5.468;2023-06-10T03:52:28;15.40;;;7.45;;
68074;SDS011;54864;52.002;5.468;2023-06-10T03:53:28;10.07;;;7.03;;
68074;SDS011;54864;52.002;5.468;2023-06-10T03:54:30;12.52;;;7.28;;
68074;SDS011;54864;52.002;5.468;2023-06-10T03:55:33;9.98;;;7.13;;
68074;SDS011;54864;52.002;5.468;2023-06-10T03:56:35;11.18;;;6.90;;
68074;SDS011;54864;52.002;5.468;2023-06-10T03:57:35;13.90;;;7.03;;
68074;SDS011;54864;52.002;5.468;2023-06-10T03:58:37;12.32;;;7.03;;
68074;SDS011;54864;52.002;5.468;2023-06-10T03:59:37;13.87;;;7.50;;
68074;SDS011;54864;52.002;5.468;2023-06-10T04:00:39;11.98;;;7.35;;
68074;SDS011;54864;52.002;5.468;2023-06-10T04:01:41;10.77;;;6.87;;
68074;SDS011;54864;52.002;5.468;2023-06-10T04:02:43;13.82;;;7.07;;
68074;SDS011;54864;52.002;5.468;2023-06-10T04:03:45;11.38;;;7.38;;
68074;SDS011;54864;52.002;5.468;2023-06-10T04:04:49;11.85;;;7.18;;
68074;SDS011;54864;52.002;5.468;2023-06-10T04:05:51;13.45;;;7.35;;
68074;SDS011;54864;52.002;5.468;2023-06-10T04:06:52;12.63;;;7.45;;
68074;SDS011;54864;52.002;5.468;2023-06-10T04:07:53;13.45;;;7.43;;
68074;SDS011;54864;52.002;5.468;2023-06-10T04:08:54;11.88;;;7.63;;
68074;SDS011;54864;52.002;5.468;2023-06-10T04:09:56;13.68;;;7.32;;
68074;SDS011;54864;52.002;5.468;2023-06-10T04:10:59;13.18;;;7.47;;
68074;SDS011;54864;52.002;5.468;2023-06-10T04:12:00;11.05;;;7.03;;
68074;SDS011;54864;52.002;5.468;2023-06-10T04:13:02;13.05;;;6.82;;
68074;SDS011;54864;52.002;5.468;2023-06-10T04:14:03;10.73;;;6.53;;
68074;SDS011;54864;52.002;5.468;2023-06-10T04:15:05;11.17;;;7.50;;
68074;SDS011;54864;52.002;5.468;2023-06-10T04:16:07;10.90;;;6.68;;
68074;SDS011;54864;52.002;5.468;2023-06-10T04:17:08;9.93;;;6.95;;
68074;SDS011;54864;52.002;5.468;2023-06-10T04:18:09;12.33;;;7.30;;
68074;SDS011;54864;52.002;5.468;2023-06-10T04:19:11;11.60;;;7.25;;
68074;SDS011;54864;52.002;5.468;2023-06-10T04:20:12;16.45;;;7.78;;
68074;SDS011;54864;52.002;5.468;2023-06-10T04:21:13;11.15;;;7.13;;
68074;SDS011;54864;52.002;5.468;2023-06-10T04:22:15;11.35;;;7.03;;
68074;SDS011;54864;52.002;5.468;2023-06-10T04:23:15;13.70;;;7.07;;
68074;SDS011;54864;52.002;5.468;2023-06-10T04:24:17;13.65;;;7.10;;
68074;SDS011;54864;52.002;5.468;2023-06-10T04:25:18;14.83;;;7.60;;
68074;SDS011;54864;52.002;5.468;2023-06-10T04:26:21;10.80;;;6.88;;
68074;SDS011;54864;52.002;5.468;2023-06-10T04:27:22;10.57;;;7.22;;
68074;SDS011;54864;52.002;5.468;2023-06-10T04:28:24;11.15;;;6.88;;
68074;SDS011;54864;52.002;5.468;2023-06-10T04:29:24;10.75;;;7.28;;
68074;SDS011;54864;52.002;5.468;2023-06-10T04:30:26;11.32;;;7.22;;
68074;SDS011;54864;52.002;5.468;2023-06-10T04:31:27;12.68;;;6.53;;
68074;SDS011;54864;52.002;5.468;2023-06-10T04:32:29;13.02;;;7.55;;
68074;SDS011;54864;52.002;5.468;2023-06-10T04:33:29;11.73;;;7.00;;
68074;SDS011;54864;52.002;5.468;2023-06-10T04:34:31;11.90;;;7.50;;
68074;SDS011;54864;52.002;5.468;2023-06-10T04:35:32;11.25;;;6.93;;
68074;SDS011;54864;52.002;5.468;2023-06-10T04:36:34;11.52;;;7.53;;
68074;SDS011;54864;52.002;5.468;2023-06-10T04:37:36;14.20;;;7.53;;
68074;SDS011;54864;52.002;5.468;2023-06-10T04:38:36;9.45;;;7.15;;
68074;SDS011;54864;52.002;5.468;2023-06-10T04:39:38;11.73;;;7.10;;
68074;SDS011;54864;52.002;5.468;2023-06-10T04:40:39;14.37;;;6.57;;
68074;SDS011;54864;52.002;5.468;2023-06-10T04:41:42;11.85;;;7.13;;
68074;SDS011;54864;52.002;5.468;2023-06-10T04:42:42;15.52;;;6.55;;
68074;SDS011;54864;52.002;5.468;2023-06-10T04:43:44;14.82;;;7.35;;
68074;SDS011;54864;52.002;5.468;2023-06-10T04:44:44;13.75;;;7.72;;
68074;SDS011;54864;52.002;5.468;2023-06-10T04:45:46;11.50;;;6.85;;
68074;SDS011;54864;52.002;5.468;2023-06-10T04:46:47;11.15;;;6.80;;
68074;SDS011;54864;52.002;5.468;2023-06-10T04:47:49;12.82;;;7.20;;
68074;SDS011;54864;52.002;5.468;2023-06-10T04:48:49;11.13;;;7.17;;
68074;SDS011;54864;52.002;5.468;2023-06-10T04:49:51;12.48;;;7.45;;
68074;SDS011;54864;52.002;5.468;2023-06-10T04:50:52;10.57;;;6.53;;
68074;SDS011;54864;52.002;5.468;2023-06-10T04:51:53;10.80;;;7.35;;
68074;SDS011;54864;52.002;5.468;2023-06-10T04:52:56;11.57;;;6.53;;
68074;SDS011;54864;52.002;5.468;2023-06-10T04:53:58;12.55;;;7.20;;
68074;SDS011;54864;52.002;5.468;2023-06-10T04:55:02;12.48;;;7.13;;
68074;SDS011;54864;52.002;5.468;2023-06-10T04:56:04;14.70;;;7.28;;
68074;SDS011;54864;52.002;5.468;2023-06-10T04:57:07;16.57;;;7.50;;
68074;SDS011;54864;52.002;5.468;2023-06-10T04:58:08;12.27;;;7.03;;
68074;SDS011;54864;52.002;5.468;2023-06-10T04:59:09;11.88;;;7.00;;
68074;SDS011;54864;52.002;5.468;2023-06-10T05:00:11;13.23;;;7.32;;
68074;SDS011;54864;52.002;5.468;2023-06-10T05:01:12;13.10;;;6.85;;
68074;SDS011;54864;52.002;5.468;2023-06-10T05:02:14;11.68;;;7.28;;
68074;SDS011;54864;52.002;5.468;2023-06-10T05:03:15;12.33;;;7.30;;
68074;SDS011;54864;52.002;5.468;2023-06-10T05:04:16;12.85;;;6.90;;
68074;SDS011;54864;52.002;5.468;2023-06-10T05:05:17;13.97;;;6.97;;
68074;SDS011;54864;52.002;5.468;2023-06-10T05:06:19;12.40;;;7.63;;
68074;SDS011;54864;52.002;5.468;2023-06-10T05:07:19;13.52;;;7.60;;
68074;SDS011;54864;52.002;5.468;2023-06-10T05:08:21;13.88;;;7.15;;
68074;SDS011;54864;52.002;5.468;2023-06-10T05:09:21;12.25;;;7.00;;
68074;SDS011;54864;52.002;5.468;2023-06-10T05:10:23;15.73;;;7.05;;
68074;SDS011;54864;52.002;5.468;2023-06-10T05:11:25;13.15;;;7.00;;
68074;SDS011;54864;52.002;5.468;2023-06-10T05:12:27;11.82;;;6.97;;
68074;SDS011;54864;52.002;5.468;2023-06-10T05:13:29;10.90;;;6.95;;
68074;SDS011;54864;52.002;5.468;2023-06-10T05:14:29;13.83;;;7.23;;
68074;SDS011;54864;52.002;5.468;2023-06-10T05:15:31;11.95;;;7.10;;
68074;SDS011;54864;52.002;5.468;2023-06-10T05:16:33;10.00;;;7.00;;
68074;SDS011;54864;52.002;5.468;2023-06-10T05:17:33;15.18;;;6.78;;
68074;SDS011;54864;52.002;5.468;2023-06-10T05:18:36;11.30;;;7.35;;
68074;SDS011;54864;52.002;5.468;2023-06-10T05:19:37;15.18;;;7.00;;
68074;SDS011;54864;52.002;5.468;2023-06-10T05:20:38;10.53;;;6.97;;
68074;SDS011;54864;52.002;5.468;2023-06-10T05:21:39;13.00;;;6.93;;
68074;SDS011;54864;52.002;5.468;2023-06-10T05:22:41;14.50;;;7.40;;
68074;SDS011;54864;52.002;5.468;2023-06-10T05:23:41;12.17;;;7.80;;
68074;SDS011;54864;52.002;5.468;2023-06-10T05:24:43;12.90;;;7.20;;
68074;SDS011;54864;52.002;5.468;2023-06-10T05:25:44;26.83;;;8.53;;
68074;SDS011;54864;52.002;5.468;2023-06-10T05:26:45;23.33;;;7.70;;
68074;SDS011;54864;52.002;5.468;2023-06-10T05:27:49;26.50;;;7.50;;
68074;SDS011;54864;52.002;5.468;2023-06-10T05:28:51;17.80;;;7.63;;
68074;SDS011;54864;52.002;5.468;2023-06-10T05:29:53;12.10;;;7.55;;
68074;SDS011;54864;52.002;5.468;2023-06-10T05:30:53;12.05;;;7.40;;
68074;SDS011;54864;52.002;5.468;2023-06-10T05:31:55;12.75;;;7.60;;
68074;SDS011;54864;52.002;5.468;2023-06-10T05:32:57;14.90;;;7.67;;
68074;SDS011;54864;52.002;5.468;2023-06-10T05:33:59;12.90;;;7.13;;
68074;SDS011;54864;52.002;5.468;2023-06-10T05:34:59;13.03;;;6.93;;
68074;SDS011;54864;52.002;5.468;2023-06-10T05:36:01;9.82;;;7.20;;
68074;SDS011;54864;52.002;5.468;2023-06-10T05:37:02;10.65;;;6.78;;
68074;SDS011;54864;52.002;5.468;2023-06-10T05:38:04;9.75;;;6.70;;
68074;SDS011;54864;52.002;5.468;2023-06-10T05:39:05;13.57;;;7.17;;
68074;SDS011;54864;52.002;5.468;2023-06-10T05:40:07;11.85;;;7.30;;
68074;SDS011;54864;52.002;5.468;2023-06-10T05:41:08;11.98;;;7.28;;
68074;SDS011;54864;52.002;5.468;2023-06-10T05:42:10;11.88;;;6.90;;
68074;SDS011;54864;52.002;5.468;2023-06-10T05:43:12;11.05;;;7.65;;
68074;SDS011;54864;52.002;5.468;2023-06-10T05:44:16;11.30;;;7.40;;
68074;SDS011;54864;52.002;5.468;2023-06-10T05:45:17;15.68;;;7.47;;
68074;SDS011;54864;52.002;5.468;2023-06-10T05:46:19;13.20;;;7.50;;
68074;SDS011;54864;52.002;5.468;2023-06-10T05:47:20;10.70;;;6.90;;
68074;SDS011;54864;52.002;5.468;2023-06-10T05:48:21;10.93;;;7.50;;
68074;SDS011;54864;52.002;5.468;2023-06-10T05:49:22;14.80;;;7.35;;
68074;SDS011;54864;52.002;5.468;2023-06-10T05:50:24;11.68;;;6.85;;
68074;SDS011;54864;52.002;5.468;2023-06-10T05:51:25;10.10;;;6.93;;
68074;SDS011;54864;52.002;5.468;2023-06-10T05:52:27;15.95;;;7.45;;
68074;SDS011;54864;52.002;5.468;2023-06-10T05:53:28;10.68;;;7.13;;
68074;SDS011;54864;52.002;5.468;2023-06-10T05:54:29;11.55;;;7.57;;
68074;SDS011;54864;52.002;5.468;2023-06-10T05:55:30;13.10;;;6.70;;
68074;SDS011;54864;52.002;5.468;2023-06-10T05:56:32;9.90;;;6.72;;
68074;SDS011;54864;52.002;5.468;2023-06-10T05:57:33;13.83;;;7.20;;
68074;SDS011;54864;52.002;5.468;2023-06-10T05:58:36;16.08;;;7.68;;
68074;SDS011;54864;52.002;5.468;2023-06-10T05:59:37;10.60;;;7.00;;
68074;SDS011;54864;52.002;5.468;2023-06-10T06:00:39;12.23;;;7.15;;
68074;SDS011;54864;52.002;5.468;2023-06-10T06:01:39;11.45;;;6.70;;
68074;SDS011;54864;52.002;5.468;2023-06-10T06:02:41;10.65;;;6.60;;
68074;SDS011;54864;52.002;5.468;2023-06-10T06:03:43;10.25;;;7.03;;
68074;SDS011;54864;52.002;5.468;2023-06-10T06:04:43;10.93;;;6.80;;
68074;SDS011;54864;52.002;5.468;2023-06-10T06:05:45;11.13;;;7.30;;
68074;SDS011;54864;52.002;5.468;2023-06-10T06:06:46;11.18;;;7.05;;
68074;SDS011;54864;52.002;5.468;2023-06-10T06:07:48;10.32;;;6.93;;
68074;SDS011;54864;52.002;5.468;2023-06-10T06:08:48;15.07;;;7.47;;